Time;durP1;ratioP1;P1;durP2;ratioP2;P2;SDS_P1;SDS_P2;PMS_P1;PMS_P2;Temp;Humidity;BMP_temperature;BMP_pressure;BME280_temperature;BME280_humidity;BME280_pressure;Samples;Min_cycle;Max_cycle;Signal;HPM_P1;HPM_P2
2021/03/02 00:01:59;;;;;;;31.30;15.25;;;;;;;-0.62;87.84;97975.50;4980312;28;20125;-62
2021/03/02 00:04:25;;;;;;;39.28;16.95;;;;;;;-0.54;86.93;97976.88;4976058;28;20080;-61
2021/03/02 00:06:52;;;;;;;33.95;15.40;;;;;;;-0.43;86.89;97973.16;4971255;28;20078;-61
2021/03/02 00:09:18;;;;;;;34.53;16.02;;;;;;;-0.36;86.42;97975.59;4955638;28;20043;-61
2021/03/02 00:11:44;;;;;;;35.13;14.68;;;;;;;-0.38;85.79;97975.03;4960386;28;20065;-62
2021/03/02 00:14:10;;;;;;;34.55;16.42;;;;;;;-0.54;85.07;97978.75;4956807;28;20039;-61
2021/03/02 00:16:41;;;;;;;39.30;16.05;;;;;;;-0.68;85.23;97975.75;4973826;28;20046;-62
2021/03/02 00:19:14;;;;;;;34.70;14.95;;;;;;;-0.61;86.26;97979.81;4975721;28;20045;-61
2021/03/02 00:21:48;;;;;;;33.55;15.93;;;;;;;-0.64;86.82;97980.31;4966840;28;20042;-61
2021/03/02 00:24:35;;;;;;;33.97;15.70;;;;;;;-0.87;85.67;97973.47;4979284;28;20038;-61
2021/03/02 00:27:02;;;;;;;31.40;15.18;;;;;;;-1.13;85.29;97990.53;4964384;28;20038;-61
2021/03/02 00:29:28;;;;;;;31.20;15.52;;;;;;;-1.39;86.74;97988.50;4959230;28;20109;-60
2021/03/02 00:31:55;;;;;;;35.92;16.35;;;;;;;-1.32;87.41;97982.09;4990818;28;20054;-61
2021/03/02 00:34:20;;;;;;;35.50;15.52;;;;;;;-1.33;87.72;97988.50;4992234;28;20081;-61
2021/03/02 00:36:46;;;;;;;28.88;13.90;;;;;;;-1.42;86.66;97988.22;4982603;28;20034;-60
2021/03/02 00:39:11;;;;;;;28.60;15.05;;;;;;;-1.55;86.16;97992.94;4971763;28;20096;-60
2021/03/02 00:41:36;;;;;;;36.20;16.52;;;;;;;-1.62;87.62;97986.13;4998095;28;20049;-61
2021/03/02 00:44:02;;;;;;;31.65;16.08;;;;;;;-1.66;89.48;98001.16;4997668;28;20589;-61
2021/03/02 00:46:28;;;;;;;34.30;14.52;;;;;;;-1.73;89.72;97993.28;4978069;28;20540;-56
2021/03/02 00:48:53;;;;;;;38.70;16.42;;;;;;;-1.64;89.65;97999.03;4966407;28;20050;-59
2021/03/02 00:51:18;;;;;;;37.38;17.65;;;;;;;-1.91;89.88;98002.53;4956175;28;20381;-60
2021/03/02 00:53:44;;;;;;;37.05;16.83;;;;;;;-2.04;91.98;98009.13;4961071;28;20053;-60
2021/03/02 00:56:09;;;;;;;49.95;17.30;;;;;;;-2.00;91.51;98006.75;4945991;28;20049;-59
2021/03/02 00:58:35;;;;;;;36.90;17.40;;;;;;;-1.85;91.48;98012.28;4971629;28;20141;-61
2021/03/02 01:01:00;;;;;;;34.72;17.33;;;;;;;-1.94;90.78;98013.81;4953029;28;20046;-60
2021/03/02 01:03:26;;;;;;;32.97;15.82;;;;;;;-1.81;90.58;98008.00;4974338;28;20070;-57
2021/03/02 01:05:52;;;;;;;40.53;15.27;;;;;;;-1.51;90.52;98008.53;4975635;28;20536;-60
2021/03/02 01:08:17;;;;;;;38.10;16.63;;;;;;;-1.44;89.83;98001.06;4971070;28;20042;-62
2021/03/02 01:10:43;;;;;;;33.97;15.25;;;;;;;-1.35;89.66;97999.56;4980332;28;20500;-62
2021/03/02 01:13:09;;;;;;;41.28;15.88;;;;;;;-1.31;88.84;98002.53;4967671;28;20045;-61
2021/03/02 01:15:35;;;;;;;33.40;15.65;;;;;;;-1.68;88.39;98006.78;4973455;28;20145;-60
2021/03/02 01:18:00;;;;;;;30.88;14.88;;;;;;;-1.93;90.03;98004.66;4978119;28;20578;-60
2021/03/02 01:20:26;;;;;;;35.95;16.33;;;;;;;-1.97;90.39;98008.94;4973544;28;20058;-60
2021/03/02 01:22:51;;;;;;;31.65;15.05;;;;;;;-1.81;90.88;97999.16;4979930;28;20061;-60
2021/03/02 01:25:16;;;;;;;37.78;16.92;;;;;;;-1.68;90.97;98004.09;4973191;28;20561;-61
2021/03/02 01:27:42;;;;;;;36.28;15.85;;;;;;;-1.71;90.42;98012.69;4979186;28;20046;-61
2021/03/02 01:30:10;;;;;;;30.73;15.70;;;;;;;-1.76;90.08;98005.38;4973307;28;20093;-61
2021/03/02 01:32:35;;;;;;;31.02;14.95;;;;;;;-1.68;90.05;98001.41;4979807;28;20047;-61
2021/03/02 01:35:01;;;;;;;29.83;14.30;;;;;;;-1.74;90.34;98005.94;4979123;28;20494;-61
2021/03/02 01:37:26;;;;;;;34.72;14.85;;;;;;;-1.88;89.60;98002.03;4966501;28;20074;-60
2021/03/02 01:39:52;;;;;;;30.85;14.52;;;;;;;-1.81;89.65;98007.22;4976495;28;20401;-60
2021/03/02 01:42:17;;;;;;;32.80;14.75;;;;;;;-1.68;89.95;98012.16;4973463;28;20061;-61
2021/03/02 01:44:42;;;;;;;30.45;13.35;;;;;;;-1.76;89.00;98012.63;4979437;28;20050;-62
2021/03/02 01:47:08;;;;;;;33.35;14.70;;;;;;;-1.97;87.55;98009.72;4973720;28;20100;-62
2021/03/02 01:49:34;;;;;;;33.58;13.60;;;;;;;-1.99;87.79;98011.88;4978194;28;20458;-61
2021/03/02 01:51:59;;;;;;;33.25;15.00;;;;;;;-1.94;88.12;98011.13;4975140;28;20434;-61
2021/03/02 01:54:25;;;;;;;34.25;15.32;;;;;;;-2.08;87.18;98016.06;4976198;28;20042;-60
2021/03/02 01:56:50;;;;;;;30.88;13.75;;;;;;;-2.19;87.60;98017.03;4983501;28;20096;-60
2021/03/02 01:59:17;;;;;;;32.63;13.25;;;;;;;-2.26;87.52;98017.22;4977248;28;20570;-61
2021/03/02 02:01:42;;;;;;;33.80;15.13;;;;;;;-2.31;89.37;98012.59;4982687;28;20046;-61
2021/03/02 02:04:29;;;;;;;27.73;13.85;;;;;;;-2.06;89.87;98011.25;4977334;28;20699;-60
2021/03/02 02:07:00;;;;;;;31.25;14.43;;;;;;;-2.00;89.60;98004.06;4983414;28;20129;-60
2021/03/02 02:09:44;;;;;;;33.42;13.95;;;;;;;-2.13;89.50;98011.44;4959070;28;20043;-59
2021/03/02 02:12:36;;;;;;;34.28;15.60;;;;;;;-2.29;88.99;98009.66;4957337;28;20046;-61
2021/03/02 02:15:11;;;;;;;31.50;14.70;;;;;;;-2.37;89.35;98005.53;4962763;28;20035;-62
2021/03/02 02:18:16;;;;;;;35.50;14.05;;;;;;;-2.51;89.52;98002.41;4962705;28;20034;-61
2021/03/02 02:20:54;;;;;;;34.20;15.43;;;;;;;-2.59;90.58;98010.09;4962533;28;20512;-60
2021/03/02 02:23:34;;;;;;;32.45;14.65;;;;;;;-2.46;90.79;98011.63;4957801;28;20054;-61
2021/03/02 02:26:02;;;;;;;33.85;15.10;;;;;;;-2.28;90.90;98011.28;4963914;28;20043;-61
2021/03/02 02:28:30;;;;;;;27.70;13.65;;;;;;;-2.28;90.84;98008.59;4959945;28;20149;-61
2021/03/02 02:30:58;;;;;;;26.35;12.88;;;;;;;-2.34;90.04;98006.91;4961012;28;20067;-62
2021/03/02 02:33:27;;;;;;;30.95;15.73;;;;;;;-2.37;89.81;98013.59;4957679;28;20585;-61
2021/03/02 02:35:53;;;;;;;38.35;15.23;;;;;;;-2.44;89.43;98018.34;4962839;28;20038;-62
2021/03/02 02:38:21;;;;;;;30.02;14.32;;;;;;;-2.54;89.03;98016.34;4952403;28;20066;-62
2021/03/02 02:40:49;;;;;;;32.85;14.25;;;;;;;-2.68;90.50;98020.47;4962611;28;20447;-61
2021/03/02 02:43:16;;;;;;;35.33;13.88;;;;;;;-2.84;91.13;98024.00;4956980;28;20050;-61
2021/03/02 02:45:42;;;;;;;36.00;16.05;;;;;;;-3.08;92.35;98022.34;4980131;28;20054;-60
2021/03/02 02:48:09;;;;;;;38.17;17.42;;;;;;;-3.12;94.13;98029.22;4974767;28;20436;-62
2021/03/02 02:50:35;;;;;;;38.28;17.00;;;;;;;-3.17;94.44;98025.66;4975619;28;20053;-61
2021/03/02 02:53:02;;;;;;;36.20;15.80;;;;;;;-3.18;94.55;98026.72;4982031;28;20511;-61
2021/03/02 02:55:51;;;;;;;33.08;16.20;;;;;;;-3.07;94.91;98023.13;4978150;28;20054;-61
2021/03/02 02:58:20;;;;;;;35.60;16.00;;;;;;;-2.78;94.61;98023.00;4969783;28;20100;-61
2021/03/02 03:00:47;;;;;;;43.03;16.13;;;;;;;-2.50;94.71;98025.53;4962603;28;20054;-60
2021/03/02 03:03:20;;;;;;;32.97;15.48;;;;;;;-2.29;93.86;98023.06;4973753;28;20137;-61
2021/03/02 03:05:49;;;;;;;40.55;16.63;;;;;;;-2.41;93.09;98027.75;4980940;28;20074;-61
2021/03/02 03:08:19;;;;;;;36.57;15.33;;;;;;;-2.51;92.53;98023.88;4959226;28;20046;-61
2021/03/02 03:10:48;;;;;;;31.77;15.52;;;;;;;-2.64;92.71;98031.50;4981589;28;20289;-61
2021/03/02 03:13:17;;;;;;;36.95;14.75;;;;;;;-2.84;92.71;98032.84;4976424;28;20045;-62
2021/03/02 03:15:48;;;;;;;34.22;15.43;;;;;;;-2.97;94.06;98033.19;4980354;28;20046;-62
2021/03/02 03:18:15;;;;;;;39.00;15.18;;;;;;;-2.97;95.46;98039.38;4976867;28;20101;-60
2021/03/02 03:20:41;;;;;;;33.22;14.38;;;;;;;-3.08;95.33;98038.41;4981584;28;20463;-61
2021/03/02 03:23:07;;;;;;;36.25;13.73;;;;;;;-3.13;95.18;98032.97;4975834;28;20105;-63
2021/03/02 03:25:34;;;;;;;32.05;15.32;;;;;;;-3.14;95.03;98030.53;4980588;28;20050;-61
2021/03/02 03:28:02;;;;;;;31.13;14.60;;;;;;;-3.06;94.74;98030.13;4981501;28;20034;-62
2021/03/02 03:30:30;;;;;;;31.08;14.82;;;;;;;-2.77;94.84;98028.13;4975441;28;20144;-62
2021/03/02 03:33:02;;;;;;;31.80;14.52;;;;;;;-2.60;94.15;98030.75;4979321;28;20042;-61
2021/03/02 03:35:28;;;;;;;28.13;14.20;;;;;;;-2.53;93.11;98033.25;4975271;28;20050;-62
2021/03/02 03:37:54;;;;;;;31.63;14.50;;;;;;;-2.39;92.46;98028.34;4981330;28;20058;-61
2021/03/02 03:40:20;;;;;;;30.05;12.93;;;;;;;-2.33;90.96;98035.38;4976557;28;20665;-61
2021/03/02 03:42:45;;;;;;;26.35;12.20;;;;;;;-2.30;89.39;98032.19;4988113;28;20042;-61
2021/03/02 03:45:12;;;;;;;27.02;11.85;;;;;;;-2.28;88.81;98040.00;4975744;28;20049;-60
2021/03/02 03:47:38;;;;;;;25.50;12.25;;;;;;;-2.40;88.58;98034.75;4987376;28;20042;-61
2021/03/02 03:50:05;;;;;;;26.85;12.20;;;;;;;-2.44;88.38;98037.13;4978336;28;20813;-63
2021/03/02 03:52:31;;;;;;;26.52;12.25;;;;;;;-2.42;88.32;98035.00;4980482;28;20086;-61
2021/03/02 03:54:59;;;;;;;25.23;11.45;;;;;;;-2.46;87.74;98038.44;4981782;28;20089;-61
2021/03/02 03:57:25;;;;;;;29.25;13.15;;;;;;;-2.50;87.62;98035.44;4975359;28;20512;-62
2021/03/02 03:59:52;;;;;;;27.02;11.93;;;;;;;-2.51;87.89;98039.19;4964293;28;20037;-62
2021/03/02 04:02:19;;;;;;;25.88;12.38;;;;;;;-2.58;87.82;98039.34;4973850;28;20046;-62
2021/03/02 04:04:46;;;;;;;29.30;12.02;;;;;;;-2.83;88.38;98037.13;4972627;28;20074;-62
2021/03/02 04:07:12;;;;;;;38.10;12.73;;;;;;;-3.11;90.52;98043.47;4974243;28;20038;-62
2021/03/02 04:09:38;;;;;;;27.67;12.57;;;;;;;-3.20;90.90;98032.31;4980430;28;20672;-61
2021/03/02 04:12:04;;;;;;;28.90;12.90;;;;;;;-3.10;91.08;98045.91;4974963;28;20050;-61
2021/03/02 04:14:33;;;;;;;27.85;12.65;;;;;;;-3.09;91.41;98044.00;4977756;28;20113;-59
2021/03/02 04:16:59;;;;;;;26.70;11.18;;;;;;;-3.07;91.40;98045.38;4980817;28;20499;-60
2021/03/02 04:19:24;;;;;;;27.50;12.40;;;;;;;-2.92;91.61;98052.03;4971236;28;20263;-61
2021/03/02 04:21:50;;;;;;;25.60;11.90;;;;;;;-3.03;91.02;98056.44;4979889;28;20393;-61
2021/03/02 04:24:15;;;;;;;24.48;12.02;;;;;;;-3.09;91.44;98060.91;4975186;28;20381;-61
2021/03/02 04:26:41;;;;;;;28.73;12.48;;;;;;;-3.16;91.57;98048.72;4977644;28;20495;-61
2021/03/02 04:29:06;;;;;;;31.80;12.90;;;;;;;-3.23;91.05;98046.22;4972439;28;20038;-62
2021/03/02 04:31:32;;;;;;;28.40;13.93;;;;;;;-3.37;90.16;98060.97;4958888;28;20090;-62
2021/03/02 04:33:57;;;;;;;25.80;13.38;;;;;;;-3.42;90.30;98055.53;4980318;28;20073;-61
2021/03/02 04:36:22;;;;;;;30.75;13.30;;;;;;;-3.49;90.63;98059.19;4974738;28;20565;-61
2021/03/02 04:38:48;;;;;;;28.33;12.73;;;;;;;-3.55;91.24;98060.16;4963145;28;20138;-59
2021/03/02 04:41:14;;;;;;;29.33;12.80;;;;;;;-3.59;90.67;98059.00;4973418;28;20102;-61
2021/03/02 04:43:39;;;;;;;31.00;12.52;;;;;;;-3.43;90.94;98060.09;4972116;28;20124;-61
2021/03/02 04:46:05;;;;;;;25.02;11.60;;;;;;;-3.24;91.16;98055.31;4976946;28;20030;-61
2021/03/02 04:48:30;;;;;;;23.95;12.13;;;;;;;-3.16;91.17;98054.91;4999859;28;20060;-58
2021/03/02 04:50:55;;;;;;;29.40;12.93;;;;;;;-3.13;91.14;98056.28;4981768;28;20056;-59
2021/03/02 04:53:21;;;;;;;26.30;11.55;;;;;;;-3.06;90.02;98064.97;4973930;28;20153;-60
2021/03/02 04:55:46;;;;;;;24.92;12.40;;;;;;;-2.98;89.90;98061.06;4982343;28;20109;-62
2021/03/02 04:58:11;;;;;;;26.75;12.15;;;;;;;-2.89;89.73;98073.00;4966547;28;20046;-61
2021/03/02 05:00:37;;;;;;;22.83;11.95;;;;;;;-2.88;89.06;98072.75;4979184;28;20050;-61
2021/03/02 05:03:03;;;;;;;25.80;11.88;;;;;;;-2.78;88.55;98073.94;4960239;28;20050;-63
2021/03/02 05:05:28;;;;;;;23.67;11.02;;;;;;;-2.68;88.32;98066.06;4977533;28;20042;-60
2021/03/02 05:07:54;;;;;;;34.33;11.60;;;;;;;-2.68;88.29;98060.69;4963152;28;20387;-60
2021/03/02 05:10:19;;;;;;;25.42;12.15;;;;;;;-2.68;88.46;98058.00;4974554;28;20038;-59
2021/03/02 05:12:45;;;;;;;23.73;10.63;;;;;;;-2.70;88.40;98070.88;4979024;28;20090;-60
2021/03/02 05:15:11;;;;;;;27.60;11.60;;;;;;;-2.78;88.34;98079.31;4971506;28;20129;-60
2021/03/02 05:17:36;;;;;;;23.90;11.18;;;;;;;-2.88;87.83;98078.13;4976292;28;20042;-61
2021/03/02 05:20:03;;;;;;;25.60;10.85;;;;;;;-3.05;87.50;98071.16;4960653;28;20936;-59
2021/03/02 05:22:28;;;;;;;24.95;11.48;;;;;;;-3.16;87.99;98081.69;4970605;28;20042;-62
2021/03/02 05:24:54;;;;;;;25.70;11.88;;;;;;;-3.13;88.68;98077.72;4976940;28;20046;-60
2021/03/02 05:27:19;;;;;;;27.10;12.73;;;;;;;-2.92;89.44;98084.19;4971040;28;20038;-61
2021/03/02 05:29:45;;;;;;;28.77;13.02;;;;;;;-2.78;89.44;98080.13;4958875;28;20050;-60
2021/03/02 05:32:10;;;;;;;31.73;11.95;;;;;;;-2.69;89.20;98084.00;4969726;28;20046;-62
2021/03/02 05:34:35;;;;;;;27.77;12.02;;;;;;;-2.64;89.22;98075.22;4967715;28;20042;-61
2021/03/02 05:37:01;;;;;;;22.40;11.02;;;;;;;-2.63;89.07;98076.88;4974931;28;20050;-62
2021/03/02 05:39:26;;;;;;;26.60;12.13;;;;;;;-2.63;89.45;98076.03;4977886;28;20042;-61
2021/03/02 05:41:52;;;;;;;27.05;12.35;;;;;;;-2.74;89.39;98077.75;4993488;23;20048;-64
2021/03/02 05:44:17;;;;;;;27.90;11.82;;;;;;;-2.78;89.31;98088.16;4966337;28;20224;-65
2021/03/02 05:46:43;;;;;;;28.55;13.25;;;;;;;-3.30;89.24;98083.06;5007316;28;20104;-63
2021/03/02 05:49:13;;;;;;;26.40;12.13;;;;;;;-3.73;90.10;98089.81;5005399;28;20046;-65
2021/03/02 05:51:41;;;;;;;29.70;14.32;;;;;;;-3.87;91.42;98095.47;5006472;28;20682;-65
2021/03/02 05:54:08;;;;;;;29.00;12.95;;;;;;;-3.92;92.79;98094.56;4998743;28;20065;-65
2021/03/02 05:56:37;;;;;;;36.25;14.45;;;;;;;-3.88;93.02;98098.41;4986308;28;20129;-65
2021/03/02 05:59:03;;;;;;;34.80;15.20;;;;;;;-3.81;93.30;98096.38;5009465;28;20052;-60
2021/03/02 06:01:29;;;;;;;35.80;14.30;;;;;;;-3.59;93.47;98101.06;4995088;28;20046;-64
2021/03/02 06:03:54;;;;;;;38.20;15.00;;;;;;;-3.70;93.14;98100.88;4998008;28;20056;-64
2021/03/02 06:06:19;;;;;;;33.95;15.63;;;;;;;-3.76;93.16;98109.03;4998102;28;20398;-66
2021/03/02 06:08:45;;;;;;;35.03;14.27;;;;;;;-3.72;93.77;98100.31;5003256;28;20041;-65
2021/03/02 06:11:24;;;;;;;32.20;15.30;;;;;;;-3.51;93.40;98103.34;4989907;28;20089;-64
2021/03/02 06:13:50;;;;;;;41.25;16.27;;;;;;;-3.44;93.34;98105.88;5004645;28;20053;-64
2021/03/02 06:16:15;;;;;;;37.08;15.48;;;;;;;-3.32;93.71;98102.06;4997707;28;20041;-66
2021/03/02 06:18:49;;;;;;;38.05;15.50;;;;;;;-3.13;93.51;98109.91;5002836;28;20140;-65
2021/03/02 06:21:15;;;;;;;33.90;15.20;;;;;;;-2.97;93.17;98109.06;4991289;28;20407;-65
2021/03/02 06:23:56;;;;;;;36.70;13.98;;;;;;;-2.79;91.46;98116.06;4999484;28;20046;-63
2021/03/02 06:26:24;;;;;;;33.20;14.57;;;;;;;-2.61;89.56;98116.81;4998580;28;21556;-65
2021/03/02 06:29:02;;;;;;;33.40;14.23;;;;;;;-2.24;90.91;98113.59;5010542;28;20078;-64
2021/03/02 06:31:37;;;;;;;33.95;15.13;;;;;;;-2.19;90.74;98121.72;5024488;28;20037;-64
2021/03/02 06:34:16;;;;;;;37.20;14.52;;;;;;;-2.04;88.59;98124.56;5018593;28;20042;-64
2021/03/02 06:36:53;;;;;;;41.55;14.77;;;;;;;-1.86;86.14;98126.13;5015512;28;20060;-65
2021/03/02 06:39:29;;;;;;;35.95;18.08;;;;;;;-1.68;84.51;98134.94;4997776;28;20550;-64
2021/03/02 06:42:14;;;;;;;34.70;16.08;;;;;;;-1.50;84.55;98133.78;4983181;28;20363;-66
2021/03/02 06:44:42;;;;;;;32.65;14.98;;;;;;;-1.25;83.86;98130.53;5000970;28;20041;-66
2021/03/02 06:47:07;;;;;;;33.40;14.80;;;;;;;-1.08;83.80;98133.09;4996401;28;20049;-66
2021/03/02 06:49:45;;;;;;;30.50;12.77;;;;;;;-0.81;81.77;98135.72;5001090;28;20042;-64
2021/03/02 06:52:16;;;;;;;30.67;12.52;;;;;;;-0.43;81.49;98137.34;4994986;28;20072;-65
2021/03/02 06:54:42;;;;;;;24.48;11.85;;;;;;;0.40;78.83;98138.53;5001446;28;20085;-66
2021/03/02 06:57:07;;;;;;;27.08;11.70;;;;;;;1.01;74.21;98131.63;4999459;28;20084;-65
2021/03/02 06:59:34;;;;;;;22.02;11.40;;;;;;;1.33;72.33;98136.75;5007251;28;20042;-66
2021/03/02 07:02:00;;;;;;;27.80;11.52;;;;;;;1.72;70.76;98130.75;5012797;28;20057;-65
2021/03/02 07:04:30;;;;;;;20.65;10.57;;;;;;;2.10;68.34;98129.28;4981046;28;20045;-66
2021/03/02 07:06:57;;;;;;;26.45;11.45;;;;;;;2.22;66.64;98131.69;4983058;28;20538;-64
2021/03/02 07:09:24;;;;;;;28.42;12.73;;;;;;;2.33;68.71;98137.84;4995212;28;20928;-65
2021/03/02 07:11:52;;;;;;;26.40;11.57;;;;;;;2.26;69.31;98130.03;5001643;28;20038;-64
2021/03/02 07:14:18;;;;;;;32.13;13.40;;;;;;;2.25;71.44;98143.81;4995714;28;20070;-63
2021/03/02 07:16:45;;;;;;;29.20;13.85;;;;;;;2.06;72.32;98135.53;5000844;28;20084;-66
2021/03/02 07:19:19;;;;;;;29.70;13.30;;;;;;;1.70;74.46;98132.94;4957344;28;20527;-62
2021/03/02 07:21:47;;;;;;;37.08;14.48;;;;;;;0.94;77.38;98138.09;4996763;28;20581;-64
2021/03/02 07:24:14;;;;;;;65.55;25.55;;;;;;;0.70;80.96;98147.78;4990102;28;20116;-63
2021/03/02 07:26:45;;;;;;;38.50;17.83;;;;;;;0.65;82.35;98150.44;4998883;28;20124;-66
2021/03/02 07:29:10;;;;;;;38.15;16.77;;;;;;;0.49;83.07;98146.94;4991583;28;20049;-65
2021/03/02 07:31:37;;;;;;;74.18;18.05;;;;;;;0.27;83.87;98145.25;4993281;28;20049;-66
2021/03/02 07:34:06;;;;;;;36.13;18.05;;;;;;;-0.13;87.24;98143.97;4994393;28;20442;-63
2021/03/02 07:36:41;;;;;;;45.90;15.82;;;;;;;0.10;87.53;98150.81;4997212;28;20038;-65
2021/03/02 07:39:16;;;;;;;38.20;16.45;;;;;;;0.92;86.03;98156.44;4996382;28;20073;-63
2021/03/02 07:41:42;;;;;;;47.45;20.75;;;;;;;1.45;81.96;98150.78;4992327;28;20042;-64
2021/03/02 07:44:08;;;;;;;54.38;20.02;;;;;;;1.96;79.97;98149.88;4996632;28;20177;-63
2021/03/02 07:46:36;;;;;;;53.83;21.92;;;;;;;2.07;80.36;98154.19;4998850;28;20129;-64
2021/03/02 07:49:31;;;;;;;48.53;19.38;;;;;;;2.15;79.69;98160.09;5001595;28;20092;-64
2021/03/02 07:51:56;;;;;;;41.17;17.63;;;;;;;2.40;78.46;98159.19;5020000;28;20048;-63
2021/03/02 07:54:22;;;;;;;77.55;19.20;;;;;;;1.61;80.31;98164.28;4977082;28;20656;-63
2021/03/02 07:56:48;;;;;;;66.15;20.63;;;;;;;1.00;83.47;98155.09;4998977;28;20045;-63
2021/03/02 07:59:13;;;;;;;53.47;18.88;;;;;;;1.34;85.74;98159.97;4979466;28;20040;-64
2021/03/02 08:01:38;;;;;;;94.45;19.00;;;;;;;0.48;87.73;98150.69;4985566;28;20044;-64
2021/03/02 08:04:13;;;;;;;64.13;21.65;;;;;;;0.68;88.19;98163.41;4996182;28;20387;-62
2021/03/02 08:06:38;;;;;;;86.05;19.48;;;;;;;0.42;90.85;98157.97;5002756;28;20068;-63
2021/03/02 08:09:26;;;;;;;39.20;18.50;;;;;;;1.42;90.51;98162.13;4998288;28;20538;-61
2021/03/02 08:11:54;;;;;;;38.95;16.95;;;;;;;2.63;85.27;98157.72;5000632;28;20570;-64
2021/03/02 08:14:25;;;;;;;32.38;15.60;;;;;;;3.34;79.74;98158.31;4994633;28;20104;-64
2021/03/02 08:16:54;;;;;;;29.85;15.45;;;;;;;4.36;76.47;98153.75;4995819;28;20045;-65
2021/03/02 08:19:34;;;;;;;35.88;14.75;;;;;;;4.79;73.16;98159.16;4991435;28;20556;-64
2021/03/02 08:22:02;;;;;;;30.13;14.18;;;;;;;5.35;72.74;98152.88;4999783;28;20394;-63
2021/03/02 08:24:49;;;;;;;28.20;14.15;;;;;;;5.77;70.20;98158.44;4996551;28;20142;-65
2021/03/02 08:27:34;;;;;;;28.85;13.23;;;;;;;5.97;67.63;98165.44;4995114;28;20087;-62
2021/03/02 08:29:59;;;;;;;25.95;13.48;;;;;;;6.59;67.49;98158.78;5000391;28;20042;-66
2021/03/02 08:32:28;;;;;;;25.98;12.70;;;;;;;6.95;65.37;98158.00;4994708;28;20533;-64
2021/03/02 08:34:54;;;;;;;24.88;13.15;;;;;;;7.40;65.26;98158.03;5000220;28;20107;-64
2021/03/02 08:37:19;;;;;;;24.67;12.63;;;;;;;8.31;63.26;98155.94;4994122;28;20046;-64
2021/03/02 08:39:52;;;;;;;24.83;12.82;;;;;;;8.48;61.06;98157.94;5000451;28;20072;-64
2021/03/02 08:42:17;;;;;;;26.25;13.77;;;;;;;9.35;58.30;98161.59;4994670;28;20046;-66
2021/03/02 08:44:43;;;;;;;25.45;13.90;;;;;;;8.88;58.47;98160.63;5000597;28;20037;-64
2021/03/02 08:47:08;;;;;;;24.45;12.77;;;;;;;8.90;59.88;98161.09;4994695;28;20046;-64
2021/03/02 08:49:33;;;;;;;25.23;13.48;;;;;;;10.01;56.92;98162.44;5027187;28;20048;-65
2021/03/02 08:52:02;;;;;;;25.73;12.93;;;;;;;10.13;56.06;98159.81;5021106;28;20041;-65
2021/03/02 08:54:28;;;;;;;23.73;12.63;;;;;;;10.40;55.40;98166.00;5015962;28;20058;-65
2021/03/02 08:57:04;;;;;;;22.15;12.32;;;;;;;11.52;51.91;98158.13;5002943;28;20038;-65
2021/03/02 08:59:30;;;;;;;23.10;13.40;;;;;;;12.31;48.74;98154.56;5020329;28;20042;-65
2021/03/02 09:01:56;;;;;;;25.48;13.63;;;;;;;12.41;47.43;98152.16;5031952;28;20052;-64
2021/03/02 09:04:25;;;;;;;22.95;13.45;;;;;;;11.92;49.64;98152.13;5038755;28;20608;-66
2021/03/02 09:06:51;;;;;;;25.50;14.55;;;;;;;11.00;50.79;98158.56;5026447;28;20045;-66
2021/03/02 09:09:21;;;;;;;25.70;13.82;;;;;;;12.43;48.08;98160.06;5034776;28;20030;-65
2021/03/02 09:11:49;;;;;;;20.60;12.55;;;;;;;13.36;44.68;98157.44;5035642;28;20075;-67
2021/03/02 09:14:17;;;;;;;23.35;13.68;;;;;;;13.98;43.89;98159.09;5029499;28;20103;-64
2021/03/02 09:16:53;;;;;;;21.05;12.52;;;;;;;13.72;42.92;98150.19;5027240;28;20045;-65
2021/03/02 09:19:28;;;;;;;28.15;13.77;;;;;;;13.02;45.47;98153.28;5017829;28;20044;-65
2021/03/02 09:21:57;;;;;;;22.98;13.50;;;;;;;13.51;43.83;98149.59;5022637;28;20068;-64
2021/03/02 09:24:25;;;;;;;21.83;13.20;;;;;;;13.45;44.45;98154.53;5012596;28;20132;-65
2021/03/02 09:26:56;;;;;;;23.85;14.80;;;;;;;11.41;49.82;98154.19;4994589;28;20042;-64
2021/03/02 09:29:27;;;;;;;24.00;14.48;;;;;;;11.54;48.26;98155.88;4990255;28;20442;-65
2021/03/02 09:31:56;;;;;;;25.40;15.00;;;;;;;12.46;46.29;98153.06;4997709;28;20045;-65
2021/03/02 09:34:32;;;;;;;25.77;14.48;;;;;;;13.89;44.14;98154.56;4998432;28;22063;-65
2021/03/02 09:37:16;;;;;;;28.15;14.50;;;;;;;13.98;44.12;98151.63;4986782;28;20045;-64
2021/03/02 09:39:58;;;;;;;27.75;16.40;;;;;;;13.99;43.79;98150.50;5003047;28;20096;-64
2021/03/02 09:42:26;;;;;;;24.08;14.82;;;;;;;15.13;41.34;98153.59;4997759;28;20061;-64
2021/03/02 09:44:53;;;;;;;28.92;15.20;;;;;;;15.04;40.75;98148.28;5004625;28;20696;-64
2021/03/02 09:47:28;;;;;;;27.20;15.88;;;;;;;14.79;41.64;98158.75;5004111;28;20086;-64
2021/03/02 09:50:04;;;;;;;27.27;16.20;;;;;;;15.38;39.91;98160.44;5024992;28;20106;-64
2021/03/02 09:52:41;;;;;;;30.48;15.60;;;;;;;15.32;40.83;98150.84;5020123;28;20366;-64
2021/03/02 09:55:08;;;;;;;27.42;15.02;;;;;;;14.68;43.23;98150.25;5017697;28;20060;-64
2021/03/02 09:57:33;;;;;;;29.75;17.42;;;;;;;13.95;44.36;98152.34;5028300;28;20037;-65
2021/03/02 10:00:08;;;;;;;27.88;16.55;;;;;;;12.65;48.25;98153.31;5024607;28;20041;-64
2021/03/02 10:02:48;;;;;;;34.53;17.73;;;;;;;12.49;48.83;98155.94;5022126;28;20072;-64
2021/03/02 10:05:13;;;;;;;32.60;16.65;;;;;;;12.69;48.32;98153.41;5018747;28;20888;-64
2021/03/02 10:07:45;;;;;;;31.63;17.08;;;;;;;12.34;49.59;98151.94;5023708;28;20044;-64
2021/03/02 10:10:11;;;;;;;33.90;17.20;;;;;;;12.80;47.16;98154.53;5017314;28;20042;-63
2021/03/02 10:12:36;;;;;;;31.65;17.92;;;;;;;12.67;48.21;98155.72;5021934;28;20120;-64
2021/03/02 10:15:02;;;;;;;31.67;17.90;;;;;;;12.18;49.97;98154.56;5022348;28;20050;-64
2021/03/02 10:17:37;;;;;;;31.33;16.17;;;;;;;13.26;47.64;98151.59;5019901;28;20125;-65
2021/03/02 10:20:07;;;;;;;31.58;16.42;;;;;;;13.19;48.84;98149.44;5021600;28;20750;-64
2021/03/02 10:22:32;;;;;;;28.55;15.90;;;;;;;13.28;47.66;98152.03;5022320;28;20533;-64
2021/03/02 10:24:57;;;;;;;28.42;15.63;;;;;;;13.11;47.80;98158.63;5022841;28;20132;-63
2021/03/02 10:27:23;;;;;;;31.02;17.45;;;;;;;12.53;49.10;98158.81;5017403;28;20818;-64
2021/03/02 10:29:49;;;;;;;28.85;16.23;;;;;;;12.27;51.71;98157.19;5023242;28;20094;-64
2021/03/02 10:32:15;;;;;;;27.38;15.32;;;;;;;11.90;51.21;98162.63;5014898;28;20415;-64
2021/03/02 10:34:44;;;;;;;29.38;17.90;;;;;;;11.62;51.98;98165.94;5004823;28;20037;-64
2021/03/02 10:37:11;;;;;;;35.72;17.27;;;;;;;11.48;52.93;98165.44;5022301;28;20041;-64
2021/03/02 10:39:38;;;;;;;29.08;16.55;;;;;;;11.95;50.74;98173.38;5026533;28;20124;-64
2021/03/02 10:42:05;;;;;;;30.73;16.13;;;;;;;12.25;50.45;98162.25;5000320;28;20052;-63
2021/03/02 10:44:31;;;;;;;34.17;18.08;;;;;;;11.88;52.00;98164.88;5021947;28;20065;-64
2021/03/02 10:46:56;;;;;;;34.10;17.95;;;;;;;11.98;50.87;98164.47;5022101;28;20065;-64
2021/03/02 10:49:22;;;;;;;34.92;17.08;;;;;;;12.36;50.46;98163.38;4982203;28;20476;-64
2021/03/02 10:51:48;;;;;;;30.92;18.02;;;;;;;12.14;50.83;98167.38;5021082;28;20482;-65
2021/03/02 10:54:14;;;;;;;31.67;17.50;;;;;;;12.16;50.70;98167.03;5015020;28;20084;-63
2021/03/02 10:56:39;;;;;;;34.45;19.48;;;;;;;11.83;51.78;98167.88;5022659;28;20072;-64
2021/03/02 10:59:05;;;;;;;32.67;18.58;;;;;;;12.31;50.90;98163.59;5017328;28;20658;-64
2021/03/02 11:01:31;;;;;;;36.67;21.02;;;;;;;11.86;51.46;98169.91;5022396;28;20412;-62
2021/03/02 11:03:57;;;;;;;33.65;20.23;;;;;;;11.85;51.58;98157.34;5020084;28;20045;-64
2021/03/02 11:06:26;;;;;;;38.53;21.23;;;;;;;11.91;51.80;98157.94;5020668;28;20041;-64
2021/03/02 11:08:52;;;;;;;38.78;20.30;;;;;;;11.91;51.54;98152.47;5022110;28;20077;-65
2021/03/02 11:11:19;;;;;;;33.53;20.13;;;;;;;11.73;52.50;98157.31;5026999;28;20069;-64
2021/03/02 11:13:46;;;;;;;33.00;18.33;;;;;;;11.67;52.55;98156.72;5030735;28;20076;-65
2021/03/02 11:16:12;;;;;;;34.60;19.38;;;;;;;11.44;52.66;98159.81;5022006;28;20490;-64
2021/03/02 11:18:37;;;;;;;33.75;18.55;;;;;;;11.99;51.43;98157.03;5023430;28;20059;-63
2021/03/02 11:21:03;;;;;;;35.53;19.70;;;;;;;11.64;52.53;98154.63;5019061;28;20468;-63
2021/03/02 11:23:29;;;;;;;36.50;19.88;;;;;;;11.80;52.35;98150.09;5006570;28;20050;-65
2021/03/02 11:25:54;;;;;;;35.85;19.52;;;;;;;11.86;52.07;98150.69;5001875;28;20046;-63